Airfield :
LOGIN :

Register | Disclaimer

   EN    FR    IT 

 










Legend :    VFR   Marginal VFR   IFR   Intensive IFR   Very Intensive IFR
Visi :
Ceiling :
>= 8 km
>= 3000ft
5 to 8 km
1000 to 3000 ft
1500m to 5 km
500 to 1000 ft
800 to 1500m
200 to 500 ft
< 800m
< 200 ft
Symbols :   Thunderstorms  Fog  Heavy snow  Heavy precipitations  Wind > 20 kt
SIGMETs :     Misc.  Thunderstorms  Icing  Turbulence  Mountain Waves  Volcanic Ashes






- Airport Elevation : 1 ft


EGCK - Caernarfon

CURRENT METAR :
  • 170420Z AUTO 06004KT 020V110 7000 -RA FEW012/// BKN031/// 07/05 Q1010

EXPIRED METARs :
  • 170350Z AUTO VRB02KT 9999 SCT031/// 06/05 Q1009
  • 170320Z AUTO 08003KT 9999 FEW037/// 06/05 Q1009
  • 170250Z AUTO 05003KT 9999 SCT032/// 06/05 Q1009
  • 170220Z AUTO VRB03KT 9999 OVC031/// 07/05 Q1009
  • 170150Z AUTO VRB03KT 9999 BKN027/// 07/06 Q1009

TAF TAF EGCK
Valid from the 17 at 03:00 until the 17 at 12:00 UTC


170201Z 1703/1712 02005KT 9999 SCT020
TEMPO 1703/1712 7000 SHRA BKN012
PROB30
TEMPO 1703/1712 4000 +SHRA BKN006



MET'MAP, your aeronautical weather chart ! - Copyright ORBIFLY December 2007 - Disclaimer

ORBIFLY MET'MAP TEAM :

Programming & Development : Alexandra Zaïnal
Concept & Development : Baudouin d'Aumeries
Co-Development & Prog : Marc-Olivier Méhu
Technical & hardware support : Manuel Goepfert

Contact : metmap@orbifly.com




SOURCES & CREDITS :

   NOAA